createdAt,value
2024-03-12T00:01:27.881Z,75.24
2024-03-12T00:03:56.606Z,76.22
2024-03-12T00:06:23.925Z,77.11
2024-03-12T00:08:50.900Z,77.67
2024-03-12T00:11:17.970Z,78.86
2024-03-12T00:13:44.753Z,79.59
2024-03-12T00:16:11.808Z,79.61
2024-03-12T00:18:41.754Z,79.03
2024-03-12T00:21:09.092Z,79.57
2024-03-12T00:23:35.897Z,80.25
2024-03-12T00:26:04.666Z,81.20
2024-03-12T00:28:34.854Z,81.84
2024-03-12T00:31:01.711Z,81.76
2024-03-12T00:33:28.733Z,81.45
2024-03-12T00:35:56.524Z,80.78
2024-03-12T00:38:23.474Z,80.43
2024-03-12T00:40:51.941Z,80.72
2024-03-12T00:43:19.386Z,81.50
2024-03-12T00:45:46.484Z,82.64
2024-03-12T00:48:15.042Z,82.54
2024-03-12T00:50:44.309Z,82.27
2024-03-12T00:53:13.011Z,81.82
2024-03-12T00:55:42.197Z,81.86
2024-03-12T00:58:12.486Z,81.49
2024-03-12T01:00:41.903Z,82.65
2024-03-12T01:03:13.411Z,83.16
2024-03-12T01:05:40.965Z,83.23
2024-03-12T01:08:09.449Z,83.45
2024-03-12T01:10:37.135Z,83.32
2024-03-12T01:13:11.006Z,83.75
2024-03-12T01:15:39.641Z,83.72
2024-03-12T01:18:10.261Z,84.49
2024-03-12T01:20:37.804Z,84.72
2024-03-12T01:23:07.291Z,85.61
2024-03-12T01:25:37.580Z,85.81
2024-03-12T01:28:08.005Z,85.58
2024-03-12T01:30:36.510Z,85.55
2024-03-12T01:33:07.599Z,84.53
2024-03-12T01:35:40.504Z,83.78
2024-03-12T01:38:11.461Z,83.16
2024-03-12T01:40:39.358Z,82.89
2024-03-12T01:43:08.651Z,82.70
2024-03-12T01:45:36.728Z,82.38
2024-03-12T01:48:09.832Z,82.01
2024-03-12T01:50:38.144Z,81.94
2024-03-12T01:53:09.033Z,81.57
2024-03-12T01:55:44.719Z,80.83
2024-03-12T01:58:16.094Z,80.43
2024-03-12T02:00:44.184Z,80.71
2024-03-12T02:03:11.058Z,81.01
2024-03-12T02:05:38.119Z,81.31
2024-03-12T02:08:05.434Z,81.55
2024-03-12T02:10:32.139Z,80.69
2024-03-12T02:12:58.979Z,80.73
2024-03-12T02:15:25.959Z,80.28
2024-03-12T02:17:55.704Z,79.55
2024-03-12T02:20:23.326Z,79.26
2024-03-12T02:22:57.128Z,78.50
2024-03-12T02:25:24.692Z,77.72
2024-03-12T02:27:52.666Z,77.47
2024-03-12T02:30:19.900Z,76.92
2024-03-12T02:32:48.748Z,77.28
2024-03-12T02:35:17.517Z,77.67
2024-03-12T02:37:44.925Z,78.03
2024-03-12T02:40:14.839Z,78.32
2024-03-12T02:42:43.063Z,79.10
2024-03-12T02:45:17.270Z,79.28
2024-03-12T02:47:46.100Z,79.31
2024-03-12T02:50:13.692Z,79.29
2024-03-12T02:52:43.581Z,79.23
2024-03-12T02:55:10.986Z,79.60
2024-03-12T02:57:38.404Z,80.29
2024-03-12T03:00:13.711Z,80.45
2024-03-12T03:02:42.804Z,80.80
2024-03-12T03:05:12.900Z,80.90
2024-03-12T03:07:43.813Z,81.65
2024-03-12T03:10:12.630Z,81.92
2024-03-12T03:12:40.724Z,82.14
2024-03-12T03:15:09.040Z,81.98
2024-03-12T03:17:36.979Z,81.79
2024-03-12T03:20:06.373Z,82.30
2024-03-12T03:22:33.439Z,82.51
2024-03-12T03:25:00.257Z,83.02
2024-03-12T03:27:27.021Z,82.44
2024-03-12T03:29:58.426Z,83.80
2024-03-12T03:32:28.532Z,85.13
2024-03-12T03:34:55.233Z,85.83
2024-03-12T03:37:22.242Z,86.50
2024-03-12T03:39:49.137Z,86.93
2024-03-12T03:42:16.966Z,87.60
2024-03-12T03:44:43.872Z,87.90
2024-03-12T03:47:10.736Z,88.06
2024-03-12T03:49:37.740Z,88.22
2024-03-12T03:52:04.852Z,89.33
2024-03-12T03:54:32.351Z,90.31
2024-03-12T03:56:59.084Z,90.59
2024-03-12T03:59:27.024Z,90.03
2024-03-12T04:01:54.073Z,90.21
2024-03-12T04:04:20.791Z,90.25
2024-03-12T04:06:48.380Z,90.23
2024-03-12T04:09:16.524Z,90.25
2024-03-12T04:11:45.238Z,91.03
2024-03-12T04:14:12.123Z,91.32
2024-03-12T04:16:39.043Z,91.47
2024-03-12T04:19:06.411Z,91.78
2024-03-12T04:21:33.357Z,92.60
2024-03-12T04:24:00.147Z,92.81
2024-03-12T04:26:30.246Z,92.79
2024-03-12T04:28:57.337Z,93.25
2024-03-12T04:31:25.139Z,93.91
2024-03-12T04:33:54.203Z,94.24
2024-03-12T04:36:24.426Z,94.21
2024-03-12T04:38:51.393Z,94.06
2024-03-12T04:41:22.057Z,93.90
2024-03-12T04:43:49.628Z,94.39
2024-03-12T04:46:16.505Z,94.78
2024-03-12T04:48:44.480Z,94.71
2024-03-12T04:51:12.359Z,95.11
2024-03-12T04:53:39.318Z,96.21
2024-03-12T04:56:06.473Z,98.34
2024-03-12T04:58:33.617Z,99.93
2024-03-12T05:01:02.488Z,100.00
2024-03-12T05:03:29.409Z,99.98
2024-03-12T05:05:58.504Z,99.88
2024-03-12T05:08:26.910Z,99.08
2024-03-12T05:10:53.884Z,99.01
2024-03-12T05:13:22.877Z,99.76
2024-03-12T05:15:50.228Z,100.00
2024-03-12T05:18:16.971Z,99.82
2024-03-12T05:20:43.729Z,99.68
2024-03-12T05:23:12.161Z,98.88
2024-03-12T05:25:45.942Z,98.28
2024-03-12T05:28:14.267Z,100.00
2024-03-12T05:30:42.674Z,96.86
2024-03-12T05:33:16.493Z,96.80
2024-03-12T05:35:51.207Z,96.43
2024-03-12T05:38:33.369Z,95.27
2024-03-12T05:41:10.135Z,95.27
2024-03-12T05:43:56.421Z,94.69
2024-03-12T05:46:43.794Z,96.56
2024-03-12T05:49:11.297Z,97.96
2024-03-12T05:51:39.304Z,98.63
2024-03-12T05:54:06.692Z,98.55
2024-03-12T05:56:33.815Z,99.27
2024-03-12T05:59:01.131Z,98.52
2024-03-12T06:01:29.458Z,98.88
2024-03-12T06:03:57.047Z,98.76
2024-03-12T06:06:23.992Z,99.76
2024-03-12T06:08:50.901Z,99.87
2024-03-12T06:11:18.428Z,99.34
2024-03-12T06:13:45.415Z,98.88
2024-03-12T06:16:12.737Z,98.77
2024-03-12T06:18:40.553Z,99.06
2024-03-12T06:21:08.080Z,99.67
2024-03-12T06:23:34.830Z,100.00
2024-03-12T06:26:05.354Z,100.00
2024-03-12T06:28:33.311Z,100.00
2024-03-12T06:31:00.738Z,100.00
2024-03-12T06:33:28.579Z,100.00
2024-03-12T06:35:55.436Z,100.00
2024-03-12T06:38:22.528Z,99.67
2024-03-12T06:40:49.815Z,97.95
2024-03-12T06:43:19.308Z,97.15
2024-03-12T06:45:46.431Z,95.86
2024-03-12T06:48:15.098Z,93.53
2024-03-12T06:50:42.492Z,94.49
2024-03-12T06:53:09.318Z,94.84
2024-03-12T06:55:37.310Z,95.66
2024-03-12T06:58:06.454Z,96.26
2024-03-12T07:00:41.727Z,97.15
2024-03-12T07:03:09.039Z,98.87
2024-03-12T07:05:38.236Z,98.68
2024-03-12T07:08:08.983Z,98.09
2024-03-12T07:10:38.564Z,97.21
2024-03-12T07:13:09.207Z,97.03
2024-03-12T07:15:41.191Z,97.29
2024-03-12T07:18:09.297Z,97.03
2024-03-12T07:20:36.794Z,95.98
2024-03-12T07:23:04.483Z,94.64
2024-03-12T07:25:34.572Z,94.45
2024-03-12T07:28:08.025Z,93.65
2024-03-12T07:30:36.903Z,93.82
2024-03-12T07:33:08.052Z,93.45
2024-03-12T07:35:35.880Z,94.18
2024-03-12T07:38:04.841Z,94.20
2024-03-12T07:40:33.338Z,93.75
2024-03-12T07:43:00.892Z,92.57
2024-03-12T07:45:28.885Z,92.41
2024-03-12T07:47:57.531Z,90.41
2024-03-12T07:50:29.974Z,90.10
2024-03-12T07:52:57.362Z,89.58
2024-03-12T07:55:24.454Z,88.76
2024-03-12T07:57:51.846Z,87.65
2024-03-12T08:00:21.846Z,87.68
2024-03-12T08:02:48.780Z,87.58
2024-03-12T08:05:15.550Z,87.20
2024-03-12T08:07:45.730Z,87.21
2024-03-12T08:10:13.834Z,86.49
2024-03-12T08:12:41.411Z,86.08
2024-03-12T08:15:10.283Z,83.53
2024-03-12T08:17:39.376Z,83.37
2024-03-12T08:20:07.911Z,84.39
2024-03-12T08:22:34.711Z,83.37
2024-03-12T08:25:02.617Z,82.73
2024-03-12T08:27:29.619Z,81.76
2024-03-12T08:29:58.782Z,81.84
2024-03-12T08:32:26.789Z,81.33
2024-03-12T08:34:53.908Z,81.56
2024-03-12T08:37:23.850Z,80.50
2024-03-12T08:39:51.603Z,78.65
2024-03-12T08:42:18.725Z,77.86
2024-03-12T08:44:45.747Z,76.20
2024-03-12T08:47:13.048Z,76.11
2024-03-12T08:49:39.858Z,75.19
2024-03-12T08:52:06.692Z,74.97
2024-03-12T08:54:34.451Z,76.54
2024-03-12T08:57:02.942Z,76.52
2024-03-12T08:59:30.754Z,76.42
2024-03-12T09:02:00.766Z,74.94
2024-03-12T09:04:32.001Z,74.70
2024-03-12T09:06:59.078Z,75.00
2024-03-12T09:09:28.187Z,75.67
2024-03-12T09:11:57.327Z,75.13
2024-03-12T09:14:24.910Z,75.06
2024-03-12T09:16:54.997Z,72.63
2024-03-12T09:19:28.405Z,71.22
2024-03-12T09:21:55.569Z,69.44
2024-03-12T09:24:22.274Z,66.39
2024-03-12T09:26:49.268Z,67.20
2024-03-12T09:29:16.242Z,66.48
2024-03-12T09:31:43.854Z,65.80
2024-03-12T09:34:12.101Z,66.41
2024-03-12T09:36:39.151Z,67.37
2024-03-12T09:39:12.563Z,69.72
2024-03-12T09:41:46.466Z,68.21
2024-03-12T09:44:13.706Z,68.06
2024-03-12T09:46:42.587Z,67.07
2024-03-12T09:49:14.634Z,66.78
2024-03-12T09:51:43.203Z,66.29
2024-03-12T09:54:13.248Z,66.33
2024-03-12T09:56:41.614Z,67.11
2024-03-12T09:59:09.603Z,66.99
2024-03-12T10:01:39.922Z,67.93
2024-03-12T10:04:08.030Z,68.02
2024-03-12T10:06:35.178Z,67.60
2024-03-12T10:09:02.438Z,66.96
2024-03-12T10:11:31.656Z,67.27
2024-03-12T10:14:00.190Z,67.94
2024-03-12T10:16:29.145Z,67.67
2024-03-12T10:19:11.368Z,67.83
2024-03-12T10:21:39.053Z,67.74
2024-03-12T10:24:19.143Z,65.72
2024-03-12T10:26:46.531Z,65.32
2024-03-12T10:29:15.407Z,66.67
2024-03-12T10:31:45.312Z,66.61
2024-03-12T10:34:21.874Z,66.74
2024-03-12T10:36:51.712Z,66.40
2024-03-12T10:39:30.110Z,66.40
2024-03-12T10:42:00.960Z,68.22
2024-03-12T10:44:30.142Z,69.00
2024-03-12T10:46:59.846Z,68.78
2024-03-12T10:49:27.952Z,69.08
2024-03-12T10:51:56.721Z,69.90
2024-03-12T10:54:24.253Z,70.47
2024-03-12T10:56:51.561Z,69.18
2024-03-12T10:59:21.155Z,70.56
2024-03-12T11:01:49.660Z,70.31
2024-03-12T11:04:17.405Z,70.33
2024-03-12T11:06:45.182Z,71.08
2024-03-12T11:09:19.339Z,70.25
2024-03-12T11:11:46.280Z,69.57
2024-03-12T11:14:13.511Z,68.50
2024-03-12T11:16:41.872Z,69.57
2024-03-12T11:19:20.689Z,69.80
2024-03-12T11:21:53.147Z,70.38
2024-03-12T11:24:44.147Z,71.06
2024-03-12T11:27:20.910Z,72.14
2024-03-12T11:30:12.871Z,72.09
2024-03-12T11:32:42.070Z,69.71
2024-03-12T11:35:18.222Z,70.38
2024-03-12T11:38:03.870Z,70.74
2024-03-12T11:40:39.330Z,69.93
2024-03-12T11:43:12.541Z,70.10
2024-03-12T11:45:48.479Z,70.33
2024-03-12T11:48:33.094Z,69.27
2024-03-12T11:51:01.245Z,67.52
2024-03-12T11:53:32.885Z,66.20
2024-03-12T11:56:11.606Z,68.51
2024-03-12T11:58:49.861Z,68.34
2024-03-12T12:01:25.834Z,67.43
2024-03-12T12:04:15.900Z,64.74
2024-03-12T12:06:44.513Z,64.42
2024-03-12T12:09:11.957Z,63.35
2024-03-12T12:11:40.235Z,64.63
2024-03-12T12:14:09.903Z,65.28
2024-03-12T12:16:37.698Z,66.62
2024-03-12T12:19:09.302Z,66.81
2024-03-12T12:21:37.791Z,67.58
2024-03-12T12:24:05.687Z,67.50
2024-03-12T12:26:37.833Z,68.85
2024-03-12T12:29:06.485Z,70.04
2024-03-12T12:31:37.818Z,70.01
2024-03-12T12:34:07.276Z,70.77
2024-03-12T12:36:40.189Z,69.65
2024-03-12T12:39:12.139Z,69.34
2024-03-12T12:41:44.581Z,69.12
2024-03-12T12:44:19.219Z,67.84
2024-03-12T12:46:47.551Z,68.11
2024-03-12T12:49:22.010Z,68.81
2024-03-12T12:51:49.336Z,67.96
2024-03-12T12:54:17.266Z,67.82
2024-03-12T12:56:45.716Z,69.00
2024-03-12T12:59:21.751Z,70.50
2024-03-12T13:01:49.787Z,69.86
2024-03-12T13:04:21.549Z,68.07
2024-03-12T13:06:48.641Z,67.60
2024-03-12T13:09:37.726Z,68.15
2024-03-12T13:12:09.058Z,68.11
2024-03-12T13:14:38.437Z,69.53
2024-03-12T13:17:06.863Z,69.55
2024-03-12T13:19:34.208Z,71.88
2024-03-12T13:22:03.692Z,71.58
2024-03-12T13:24:31.225Z,71.53
2024-03-12T13:26:59.621Z,71.52
2024-03-12T13:29:27.142Z,71.41
2024-03-12T13:31:54.915Z,72.57
2024-03-12T13:34:24.699Z,72.69
2024-03-12T13:36:53.019Z,73.15
2024-03-12T13:39:20.727Z,73.71
2024-03-12T13:41:48.068Z,74.01
2024-03-12T13:44:15.112Z,74.49
2024-03-12T13:46:44.490Z,74.01
2024-03-12T13:49:15.298Z,74.23
2024-03-12T13:51:44.161Z,75.03
2024-03-12T13:54:11.909Z,74.90
2024-03-12T13:56:39.129Z,76.49
2024-03-12T13:59:06.346Z,76.60
2024-03-12T14:01:34.090Z,76.16
2024-03-12T14:04:01.195Z,75.29
2024-03-12T14:06:31.730Z,75.48
2024-03-12T14:08:58.844Z,77.10
2024-03-12T14:11:27.083Z,77.66
2024-03-12T14:13:57.063Z,77.93
2024-03-12T14:16:25.433Z,77.42
2024-03-12T14:18:54.111Z,78.06
2024-03-12T14:21:21.110Z,78.96
2024-03-12T14:23:49.011Z,80.85
2024-03-12T14:26:19.281Z,80.49
2024-03-12T14:28:47.552Z,79.56
2024-03-12T14:31:17.982Z,81.30
2024-03-12T14:33:45.006Z,81.22
2024-03-12T14:36:12.023Z,81.92
2024-03-12T14:38:39.208Z,82.07
2024-03-12T14:41:07.838Z,82.34
2024-03-12T14:43:35.461Z,82.87
2024-03-12T14:46:04.329Z,83.19
2024-03-12T14:48:31.194Z,83.56
2024-03-12T14:51:01.000Z,82.71
2024-03-12T14:53:28.544Z,80.31
2024-03-12T14:55:56.024Z,79.43
2024-03-12T14:58:23.337Z,79.90
2024-03-12T15:00:50.481Z,78.78
2024-03-12T15:03:20.229Z,79.50
2024-03-12T15:05:50.156Z,79.01
2024-03-12T15:08:17.201Z,78.48
2024-03-12T15:10:44.114Z,79.15
2024-03-12T15:13:11.111Z,79.68
2024-03-12T15:15:38.313Z,78.15
2024-03-12T15:18:06.095Z,77.44
2024-03-12T15:20:32.858Z,77.11
2024-03-12T15:23:02.555Z,76.05
2024-03-12T15:25:29.543Z,75.09
2024-03-12T15:27:57.566Z,75.53
2024-03-12T15:30:25.673Z,78.44
2024-03-12T15:32:52.930Z,80.72
2024-03-12T15:35:22.643Z,82.93
2024-03-12T15:37:49.763Z,83.09
2024-03-12T15:40:19.735Z,82.48
2024-03-12T15:42:46.950Z,81.99
2024-03-12T15:45:16.972Z,81.09
2024-03-12T15:47:45.171Z,82.21
2024-03-12T15:50:13.614Z,81.47
2024-03-12T15:52:40.839Z,80.33
2024-03-12T15:55:09.656Z,80.28
2024-03-12T15:57:40.038Z,80.01
2024-03-12T16:00:09.716Z,80.95
2024-03-12T16:02:36.682Z,81.04
2024-03-12T16:05:06.820Z,81.63
2024-03-12T16:07:37.770Z,81.44
2024-03-12T16:10:09.946Z,81.41
2024-03-12T16:12:39.684Z,81.69
2024-03-12T16:15:10.920Z,82.29
2024-03-12T16:17:38.131Z,82.83
2024-03-12T16:20:14.712Z,82.39
2024-03-12T16:22:45.587Z,81.29
2024-03-12T16:25:15.111Z,81.60
2024-03-12T16:27:44.755Z,81.73
2024-03-12T16:30:15.088Z,82.42
2024-03-12T16:32:42.965Z,82.21
2024-03-12T16:35:10.145Z,81.67
2024-03-12T16:37:40.173Z,80.76
2024-03-12T16:40:09.430Z,81.21
2024-03-12T16:42:37.070Z,81.93
2024-03-12T16:45:05.031Z,83.96
2024-03-12T16:47:32.008Z,82.97
2024-03-12T16:50:01.543Z,82.02
2024-03-12T16:52:28.944Z,81.57
2024-03-12T16:54:56.169Z,79.65
2024-03-12T16:57:23.283Z,78.48
2024-03-12T16:59:57.187Z,78.58
2024-03-12T17:02:26.322Z,78.41
2024-03-12T17:04:57.779Z,79.73
2024-03-12T17:07:25.528Z,79.29
2024-03-12T17:09:52.645Z,79.58
2024-03-12T17:12:21.347Z,79.35
2024-03-12T17:14:49.105Z,78.79
2024-03-12T17:17:22.627Z,79.78
2024-03-12T17:19:49.639Z,79.74
2024-03-12T17:22:16.692Z,78.97
2024-03-12T17:24:43.883Z,77.32
2024-03-12T17:27:11.995Z,77.23
2024-03-12T17:29:39.062Z,75.90
2024-03-12T17:32:06.577Z,75.42
2024-03-12T17:34:33.799Z,76.06
2024-03-12T17:37:05.230Z,76.92
2024-03-12T17:39:35.627Z,77.17
2024-03-12T17:42:02.810Z,77.54
2024-03-12T17:44:30.087Z,79.22
2024-03-12T17:46:58.520Z,78.26
2024-03-12T17:49:26.967Z,77.52
2024-03-12T17:51:55.164Z,77.79
2024-03-12T17:54:22.982Z,77.92
2024-03-12T17:56:51.724Z,78.37
2024-03-12T17:59:20.541Z,78.66
2024-03-12T18:01:48.483Z,80.14
2024-03-12T18:04:16.382Z,78.41
2024-03-12T18:06:45.535Z,78.45
2024-03-12T18:09:13.752Z,79.04
2024-03-12T18:11:41.423Z,78.06
2024-03-12T18:14:10.677Z,78.62
2024-03-12T18:16:38.900Z,78.96
2024-03-12T18:19:09.325Z,78.25
2024-03-12T18:21:37.293Z,79.09
2024-03-12T18:24:06.755Z,79.60
2024-03-12T18:26:35.743Z,81.42
2024-03-12T18:29:04.623Z,81.40
2024-03-12T18:31:32.045Z,83.97
2024-03-12T18:33:59.430Z,84.47
2024-03-12T18:36:26.132Z,84.66
2024-03-12T18:38:53.031Z,88.04
2024-03-12T18:41:19.889Z,88.51
2024-03-12T18:43:48.261Z,87.72
2024-03-12T18:46:14.924Z,90.01
2024-03-12T18:48:42.807Z,89.47
2024-03-12T18:51:10.827Z,88.65
2024-03-12T18:53:39.293Z,88.56
2024-03-12T18:56:07.208Z,89.60
2024-03-12T18:58:35.047Z,92.18
2024-03-12T19:01:03.126Z,91.37
2024-03-12T19:03:51.915Z,92.51
2024-03-12T19:06:27.138Z,93.05
2024-03-12T19:08:57.738Z,92.51
2024-03-12T19:11:28.434Z,92.22
2024-03-12T19:13:56.885Z,91.79
2024-03-12T19:16:26.750Z,92.69
2024-03-12T19:18:55.068Z,93.54
2024-03-12T19:21:22.316Z,93.33
2024-03-12T19:23:52.674Z,93.18
2024-03-12T19:26:20.313Z,93.79
2024-03-12T19:28:47.260Z,93.09
2024-03-12T19:31:16.027Z,93.00
2024-03-12T19:33:45.184Z,93.18
2024-03-12T19:36:13.553Z,93.23
2024-03-12T19:38:40.733Z,93.37
2024-03-12T19:41:08.592Z,95.15
2024-03-12T19:43:38.561Z,93.97
2024-03-12T19:46:06.623Z,92.71
2024-03-12T19:48:34.648Z,93.48
2024-03-12T19:51:01.907Z,93.39
2024-03-12T19:53:28.842Z,96.02
2024-03-12T19:55:56.003Z,97.88
2024-03-12T19:58:23.126Z,96.80
2024-03-12T20:00:52.822Z,96.18
2024-03-12T20:03:23.970Z,95.59
2024-03-12T20:05:51.155Z,96.44
2024-03-12T20:08:18.204Z,97.16
2024-03-12T20:10:47.551Z,97.63
2024-03-12T20:13:14.767Z,98.19
2024-03-12T20:15:47.057Z,99.28
2024-03-12T20:18:15.185Z,99.74
2024-03-12T20:20:45.019Z,100.00
2024-03-12T20:23:12.373Z,99.34
2024-03-12T20:25:39.589Z,98.74
2024-03-12T20:28:11.237Z,98.51
2024-03-12T20:30:40.480Z,98.32
2024-03-12T20:33:09.985Z,97.75
2024-03-12T20:35:39.326Z,98.37
2024-03-12T20:38:10.351Z,97.35
2024-03-12T20:40:37.373Z,100.00
2024-03-12T20:43:07.179Z,100.00
2024-03-12T20:45:35.641Z,100.00
2024-03-12T20:48:02.992Z,100.00
2024-03-12T20:50:30.510Z,100.00
2024-03-12T20:52:57.548Z,100.00
2024-03-12T20:55:25.253Z,100.00
2024-03-12T20:57:52.419Z,100.00
2024-03-12T21:00:27.931Z,100.00
2024-03-12T21:02:55.248Z,100.00
2024-03-12T21:05:22.569Z,100.00
2024-03-12T21:07:52.863Z,100.00
2024-03-12T21:10:20.550Z,100.00
2024-03-12T21:12:52.281Z,100.00
2024-03-12T21:15:28.649Z,100.00
2024-03-12T21:17:55.543Z,100.00
2024-03-12T21:20:34.433Z,100.00
2024-03-12T21:23:01.498Z,100.00
2024-03-12T21:25:28.420Z,100.00
2024-03-12T21:27:55.271Z,100.00
2024-03-12T21:30:25.065Z,100.00
2024-03-12T21:32:52.467Z,100.00
2024-03-12T21:35:19.387Z,100.00
2024-03-12T21:37:46.364Z,100.00
2024-03-12T21:40:13.736Z,100.00
2024-03-12T21:42:43.876Z,100.00
2024-03-12T21:45:11.410Z,100.00
2024-03-12T21:47:38.974Z,100.00
2024-03-12T21:50:09.797Z,100.00
2024-03-12T21:52:37.353Z,100.00
2024-03-12T21:55:07.508Z,100.00
2024-03-12T21:57:38.058Z,100.00
2024-03-12T22:00:12.854Z,100.00
2024-03-12T22:02:40.321Z,100.00
2024-03-12T22:05:07.308Z,100.00
2024-03-12T22:07:38.238Z,100.00
2024-03-12T22:10:06.486Z,100.00
2024-03-12T22:12:33.314Z,100.00
2024-03-12T22:15:00.211Z,100.00
2024-03-12T22:17:27.135Z,100.00
2024-03-12T22:19:55.187Z,100.00
2024-03-12T22:22:22.252Z,100.00
2024-03-12T22:24:49.068Z,100.00
2024-03-12T22:27:15.818Z,100.00
2024-03-12T22:29:42.648Z,100.00
2024-03-12T22:32:15.386Z,100.00
2024-03-12T22:34:42.517Z,100.00
2024-03-12T22:37:10.152Z,100.00
2024-03-12T22:39:38.033Z,100.00
2024-03-12T22:42:06.302Z,100.00
2024-03-12T22:44:33.380Z,100.00
2024-03-12T22:47:02.123Z,100.00
2024-03-12T22:49:29.002Z,100.00
2024-03-12T22:51:57.208Z,100.00
2024-03-12T22:54:24.466Z,100.00
2024-03-12T22:56:51.400Z,100.00
2024-03-12T22:59:20.105Z,100.00
2024-03-12T23:01:54.203Z,100.00
2024-03-12T23:04:25.489Z,100.00
2024-03-12T23:06:52.650Z,100.00
2024-03-12T23:09:21.040Z,100.00
2024-03-12T23:11:47.826Z,100.00
2024-03-12T23:14:15.120Z,100.00
2024-03-12T23:16:41.986Z,100.00
2024-03-12T23:19:12.796Z,100.00
2024-03-12T23:21:40.000Z,100.00
2024-03-12T23:24:07.325Z,100.00
2024-03-12T23:26:34.170Z,100.00
2024-03-12T23:29:00.924Z,100.00
2024-03-12T23:31:27.739Z,100.00
2024-03-12T23:33:57.517Z,100.00
2024-03-12T23:36:29.216Z,100.00
2024-03-12T23:38:56.690Z,100.00
2024-03-12T23:41:24.928Z,100.00
2024-03-12T23:43:54.119Z,100.00
2024-03-12T23:46:21.900Z,100.00
2024-03-12T23:48:49.693Z,100.00
2024-03-12T23:51:16.664Z,100.00
2024-03-12T23:53:47.339Z,100.00
2024-03-12T23:56:14.113Z,100.00
2024-03-12T23:58:40.880Z,100.00
